createdAt,value
2023-01-19T00:00:07.563Z,90945.34
2023-01-19T00:02:53.349Z,90947.44
2023-01-19T00:05:39.435Z,90949.34
2023-01-19T00:08:25.381Z,90947.47
2023-01-19T00:11:11.049Z,90948.06
2023-01-19T00:13:56.880Z,90948.88
2023-01-19T00:16:42.724Z,90948.31
2023-01-19T00:19:28.591Z,90950.53
2023-01-19T00:22:14.416Z,90947.34
2023-01-19T00:25:00.188Z,90941.03
2023-01-19T00:27:46.208Z,90956.66
2023-01-19T00:30:31.899Z,90953.25
2023-01-19T00:33:17.784Z,90950.69
2023-01-19T00:36:03.783Z,90949.81
2023-01-19T00:38:49.597Z,90946.44
2023-01-19T00:41:35.551Z,90948.41
2023-01-19T00:44:21.469Z,90943.88
2023-01-19T00:47:07.269Z,90942.75
2023-01-19T00:49:53.243Z,90945.75
2023-01-19T00:52:39.017Z,90956.41
2023-01-19T00:55:24.910Z,90956.22
2023-01-19T00:58:10.970Z,90964.63
2023-01-19T01:00:56.853Z,90954.72
2023-01-19T01:03:42.901Z,90950.78
2023-01-19T01:06:28.795Z,90964.25
2023-01-19T01:09:14.622Z,90973.78
2023-01-19T01:12:00.496Z,90972.59
2023-01-19T01:14:46.315Z,90978.34
2023-01-19T01:17:32.150Z,90985.25
2023-01-19T01:20:17.987Z,90971.03
2023-01-19T01:23:04.294Z,90978.88
2023-01-19T01:25:50.347Z,90984.09
2023-01-19T01:28:36.105Z,90994.56
2023-01-19T01:31:22.073Z,90988.69
2023-01-19T01:34:07.853Z,90985.06
2023-01-19T01:36:53.780Z,90985.38
2023-01-19T01:39:39.615Z,90987.69
2023-01-19T01:42:25.498Z,90991.50
2023-01-19T01:45:11.173Z,90998.75
2023-01-19T01:47:57.157Z,90998.66
2023-01-19T01:50:43.059Z,90995.19
2023-01-19T01:53:29.089Z,90993.41
2023-01-19T01:56:15.106Z,90993.59
2023-01-19T01:59:01.152Z,90995.13
2023-01-19T02:01:49.129Z,90996.66
2023-01-19T02:04:35.502Z,91001.03
2023-01-19T02:07:21.300Z,91002.31
2023-01-19T02:10:07.188Z,90997.09
2023-01-19T02:12:53.035Z,90995.94
2023-01-19T02:15:38.843Z,90993.69
2023-01-19T02:18:24.891Z,90998.66
2023-01-19T02:21:10.637Z,90994.72
2023-01-19T02:23:56.573Z,90999.13
2023-01-19T02:26:42.542Z,90990.19
2023-01-19T02:29:28.357Z,91001.44
2023-01-19T02:32:14.370Z,90992.44
2023-01-19T02:35:00.305Z,90988.63
2023-01-19T02:37:46.124Z,90995.75
2023-01-19T02:40:32.109Z,90995.25
2023-01-19T02:43:17.856Z,90997.25
2023-01-19T02:46:03.780Z,90993.34
2023-01-19T02:48:49.633Z,91008.44
2023-01-19T02:51:35.456Z,91010.63
2023-01-19T02:54:21.370Z,91004.97
2023-01-19T02:57:07.347Z,91002.75
2023-01-19T02:59:53.164Z,91009.97
2023-01-19T03:02:41.234Z,91002.44
2023-01-19T03:05:27.100Z,91000.38
2023-01-19T03:08:12.931Z,90992.31
2023-01-19T03:10:58.746Z,90996.16
2023-01-19T03:13:44.585Z,91001.91
2023-01-19T03:16:30.430Z,91001.34
2023-01-19T03:19:16.422Z,90999.59
2023-01-19T03:22:02.340Z,91001.16
2023-01-19T03:24:48.383Z,91005.84
2023-01-19T03:27:34.303Z,91010.94
2023-01-19T03:30:20.237Z,91006.94
2023-01-19T03:33:06.117Z,91002.88
2023-01-19T03:35:52.036Z,91012.59
2023-01-19T03:38:37.982Z,91018.25
2023-01-19T03:41:23.723Z,91022.00
2023-01-19T03:44:09.618Z,91008.47
2023-01-19T03:46:55.527Z,91013.13
2023-01-19T03:49:41.531Z,91025.78
2023-01-19T03:52:27.481Z,91018.34
2023-01-19T03:55:13.298Z,91022.25
2023-01-19T03:57:59.152Z,91022.97
2023-01-19T04:00:45.072Z,91024.78
2023-01-19T04:03:30.938Z,91028.44
2023-01-19T04:06:16.857Z,91035.63
2023-01-19T04:09:02.795Z,91028.75
2023-01-19T04:11:48.500Z,91036.81
2023-01-19T04:14:34.340Z,91028.69
2023-01-19T04:17:20.253Z,91022.91
2023-01-19T04:20:06.278Z,91023.81
2023-01-19T04:22:52.218Z,91028.97
2023-01-19T04:25:39.056Z,91031.09
2023-01-19T04:28:25.206Z,91024.25
2023-01-19T04:31:11.228Z,91023.72
2023-01-19T04:33:57.153Z,91026.84
2023-01-19T04:36:43.035Z,91025.09
2023-01-19T04:39:29.033Z,91030.44
2023-01-19T04:42:15.077Z,91027.63
2023-01-19T04:45:01.060Z,91033.41
2023-01-19T04:47:46.971Z,91034.81
2023-01-19T04:50:32.961Z,91030.41
2023-01-19T04:53:18.899Z,91031.88
2023-01-19T04:56:04.729Z,91028.84
2023-01-19T04:58:50.665Z,91030.75
2023-01-19T05:01:36.506Z,91038.66
2023-01-19T05:04:22.792Z,91042.25
2023-01-19T05:07:08.766Z,91042.81
2023-01-19T05:09:54.623Z,91043.38
2023-01-19T05:12:40.465Z,91036.59
2023-01-19T05:15:26.446Z,91032.31
2023-01-19T05:18:12.351Z,91041.56
2023-01-19T05:20:58.296Z,91028.44
2023-01-19T05:23:44.101Z,91033.94
2023-01-19T05:26:29.994Z,91035.25
2023-01-19T05:29:16.404Z,91032.59
2023-01-19T05:32:02.243Z,91039.28
2023-01-19T05:34:48.694Z,91042.16
2023-01-19T05:37:34.742Z,91042.78
2023-01-19T05:40:20.628Z,91043.78
2023-01-19T05:43:06.735Z,91046.97
2023-01-19T05:45:52.627Z,91053.47
2023-01-19T05:48:38.638Z,91051.88
2023-01-19T05:51:24.645Z,91054.78
2023-01-19T05:54:10.442Z,91053.09
2023-01-19T05:56:56.265Z,91047.56
2023-01-19T05:59:42.031Z,91047.34
2023-01-19T06:02:27.886Z,91051.59
2023-01-19T06:05:14.353Z,91052.69
2023-01-19T06:08:00.073Z,91054.66
2023-01-19T06:10:46.028Z,91062.31
2023-01-19T06:13:31.979Z,91064.53
2023-01-19T06:16:17.755Z,91060.59
2023-01-19T06:19:03.770Z,91069.66
2023-01-19T06:21:49.737Z,91070.03
2023-01-19T06:24:35.924Z,91071.63
2023-01-19T06:27:21.779Z,91069.00
2023-01-19T06:30:07.643Z,91072.59
2023-01-19T06:32:53.396Z,91068.47
2023-01-19T06:35:39.373Z,91074.69
2023-01-19T06:38:25.294Z,91073.63
2023-01-19T06:41:11.212Z,91081.75
2023-01-19T06:43:57.061Z,91080.75
2023-01-19T06:46:42.836Z,91081.25
2023-01-19T06:49:28.849Z,91089.56
2023-01-19T06:52:14.705Z,91082.34
2023-01-19T06:55:00.676Z,91088.47
2023-01-19T06:57:46.652Z,91091.47
2023-01-19T07:00:33.011Z,91096.53
2023-01-19T07:03:19.082Z,91099.97
2023-01-19T07:06:07.024Z,91095.25
2023-01-19T07:08:53.271Z,91097.63
2023-01-19T07:11:39.064Z,91100.69
2023-01-19T07:14:24.928Z,91096.78
2023-01-19T07:17:10.807Z,91103.88
2023-01-19T07:19:56.773Z,91112.72
2023-01-19T07:22:44.507Z,91101.50
2023-01-19T07:25:30.486Z,91114.09
2023-01-19T07:28:16.549Z,91113.88
2023-01-19T07:31:02.366Z,91112.47
2023-01-19T07:33:48.281Z,91111.84
2023-01-19T07:36:34.226Z,91112.25
2023-01-19T07:39:20.096Z,91114.56
2023-01-19T07:42:06.038Z,91120.34
2023-01-19T07:44:51.781Z,91119.19
2023-01-19T07:47:37.608Z,91123.75
2023-01-19T07:50:23.388Z,91117.75
2023-01-19T07:53:09.284Z,91127.94
2023-01-19T07:55:55.282Z,91134.44
2023-01-19T07:58:41.187Z,91124.88
2023-01-19T08:01:27.135Z,91122.69
2023-01-19T08:04:13.370Z,91126.66
2023-01-19T08:06:59.323Z,91132.59
2023-01-19T08:09:45.434Z,91137.34
2023-01-19T08:12:31.387Z,91141.16
2023-01-19T08:15:17.251Z,91139.22
2023-01-19T08:18:03.203Z,91147.44
2023-01-19T08:20:49.007Z,91149.72
2023-01-19T08:23:34.903Z,91142.41
2023-01-19T08:26:20.719Z,91155.66
2023-01-19T08:29:06.523Z,91164.97
2023-01-19T08:31:52.737Z,91169.63
2023-01-19T08:34:38.789Z,91170.75
2023-01-19T08:37:24.584Z,91177.09
2023-01-19T08:40:10.649Z,91173.13
2023-01-19T08:42:56.557Z,91180.03
2023-01-19T08:45:42.262Z,91176.31
2023-01-19T08:48:28.160Z,91178.34
2023-01-19T08:51:13.798Z,91175.28
2023-01-19T08:53:59.746Z,91169.97
2023-01-19T08:56:45.747Z,91172.53
2023-01-19T08:59:31.593Z,91173.13
2023-01-19T09:02:17.574Z,91164.72
2023-01-19T09:05:03.342Z,91169.81
2023-01-19T09:07:49.257Z,91175.59
2023-01-19T09:10:35.219Z,91170.94
2023-01-19T09:13:20.950Z,91177.00
2023-01-19T09:16:06.979Z,91170.91
2023-01-19T09:18:52.714Z,91176.22
2023-01-19T09:21:38.621Z,91175.63
2023-01-19T09:24:24.536Z,91176.59
2023-01-19T09:27:10.441Z,91174.97
2023-01-19T09:29:56.284Z,91177.16
2023-01-19T09:32:42.264Z,91182.03
2023-01-19T09:35:28.463Z,91187.09
2023-01-19T09:38:14.397Z,91188.22
2023-01-19T09:41:00.134Z,91186.53
2023-01-19T09:43:46.067Z,91192.41
2023-01-19T09:46:32.244Z,91193.09
2023-01-19T09:49:18.400Z,91186.13
2023-01-19T09:52:04.216Z,91184.41
2023-01-19T09:54:49.982Z,91189.50
2023-01-19T09:57:35.818Z,91189.16
2023-01-19T10:00:21.638Z,91189.63
2023-01-19T10:03:07.529Z,91186.66
2023-01-19T10:05:53.638Z,91189.78
2023-01-19T10:08:41.656Z,91183.56
2023-01-19T10:11:31.845Z,91183.38
2023-01-19T10:14:20.335Z,91186.22
2023-01-19T10:17:06.370Z,91187.13
2023-01-19T10:19:52.381Z,91184.06
2023-01-19T10:22:38.182Z,91188.44
2023-01-19T10:25:24.080Z,91177.47
2023-01-19T10:28:10.076Z,91185.25
2023-01-19T10:30:55.830Z,91185.66
2023-01-19T10:33:41.803Z,91181.84
2023-01-19T10:36:27.579Z,91181.41
2023-01-19T10:39:13.595Z,91180.88
2023-01-19T10:41:59.548Z,91170.69
2023-01-19T10:44:45.354Z,91159.22
2023-01-19T10:47:31.190Z,91161.47
2023-01-19T10:50:17.071Z,91157.00
2023-01-19T10:53:03.318Z,91161.63
2023-01-19T10:55:50.309Z,91167.63
2023-01-19T10:58:38.370Z,91167.09
2023-01-19T11:01:24.280Z,91170.25
2023-01-19T11:04:10.371Z,91163.41
2023-01-19T11:06:56.212Z,91171.97
2023-01-19T11:09:43.313Z,91156.78
2023-01-19T11:12:29.385Z,91156.69
2023-01-19T11:15:15.187Z,91157.78
2023-01-19T11:18:00.914Z,91149.38
2023-01-19T11:20:46.871Z,91142.28
2023-01-19T11:23:32.781Z,91154.16
2023-01-19T11:26:18.729Z,91147.59
2023-01-19T11:29:04.749Z,91144.00
2023-01-19T11:31:50.751Z,91140.56
2023-01-19T11:34:36.830Z,91129.41
2023-01-19T11:37:22.692Z,91131.28
2023-01-19T11:40:08.587Z,91128.13
2023-01-19T11:42:54.499Z,91129.84
2023-01-19T11:45:40.372Z,91124.97
2023-01-19T11:48:26.236Z,91121.81
2023-01-19T11:51:12.114Z,91114.16
2023-01-19T11:53:58.349Z,91116.97
2023-01-19T11:56:44.463Z,91114.78
2023-01-19T11:59:30.343Z,91112.81
2023-01-19T12:02:16.420Z,91123.44
2023-01-19T12:05:02.367Z,91114.78
2023-01-19T12:07:48.325Z,91107.19
2023-01-19T12:10:34.182Z,91112.47
2023-01-19T12:13:20.099Z,91108.69
2023-01-19T12:16:06.293Z,91107.06
2023-01-19T12:18:52.345Z,91102.09
2023-01-19T12:21:38.258Z,91102.16
2023-01-19T12:24:24.209Z,91094.13
2023-01-19T12:27:10.069Z,91093.31
2023-01-19T12:29:56.041Z,91093.59
2023-01-19T12:32:42.029Z,91082.09
2023-01-19T12:35:29.989Z,91087.28
2023-01-19T12:38:15.969Z,91087.09
2023-01-19T12:41:01.952Z,91087.44
2023-01-19T12:43:47.724Z,91085.66
2023-01-19T12:46:33.635Z,91088.72
2023-01-19T12:49:19.638Z,91090.16
2023-01-19T12:52:05.526Z,91087.38
2023-01-19T12:54:51.407Z,91084.41
2023-01-19T12:57:37.280Z,91086.28
2023-01-19T13:00:23.351Z,91083.13
2023-01-19T13:03:09.652Z,91080.72
2023-01-19T13:05:55.442Z,91076.09
2023-01-19T13:08:41.432Z,91071.81
2023-01-19T13:11:31.336Z,91081.00
2023-01-19T13:14:19.419Z,91075.38
2023-01-19T13:17:05.134Z,91077.22
2023-01-19T13:19:51.051Z,91072.28
2023-01-19T13:22:36.801Z,91069.63
2023-01-19T13:25:22.733Z,91068.78
2023-01-19T13:28:08.747Z,91071.75
2023-01-19T13:30:54.700Z,91064.91
2023-01-19T13:33:41.295Z,91065.34
2023-01-19T13:36:27.457Z,91068.13
2023-01-19T13:39:13.276Z,91069.31
2023-01-19T13:41:59.244Z,91070.97
2023-01-19T13:44:45.125Z,91076.94
2023-01-19T13:47:31.080Z,91072.34
2023-01-19T13:50:16.931Z,91071.34
2023-01-19T13:53:02.757Z,91074.00
2023-01-19T13:55:48.864Z,91068.88
2023-01-19T13:58:34.797Z,91073.19
2023-01-19T14:01:20.899Z,91063.53
2023-01-19T14:04:07.070Z,91060.91
2023-01-19T14:06:53.522Z,91061.53
2023-01-19T14:09:39.674Z,91060.31
2023-01-19T14:12:25.927Z,91062.88
2023-01-19T14:15:11.875Z,91062.69
2023-01-19T14:17:57.805Z,91059.28
2023-01-19T14:20:44.071Z,91059.44
2023-01-19T14:23:29.904Z,91055.44
2023-01-19T14:26:15.925Z,91054.84
2023-01-19T14:29:02.001Z,91059.28
2023-01-19T14:31:48.049Z,91055.91
2023-01-19T14:34:34.115Z,91052.72
2023-01-19T14:37:20.039Z,91054.59
2023-01-19T14:40:09.181Z,91054.22
2023-01-19T14:42:55.131Z,91048.41
2023-01-19T14:45:41.057Z,91061.81
2023-01-19T14:48:27.500Z,91055.88
2023-01-19T14:51:15.505Z,91054.06
2023-01-19T14:54:01.471Z,91055.63
2023-01-19T14:56:47.253Z,91050.09
2023-01-19T14:59:33.291Z,91061.16
2023-01-19T15:02:19.306Z,91050.34
2023-01-19T15:05:05.398Z,91046.53
2023-01-19T15:07:51.765Z,91053.00
2023-01-19T15:10:37.582Z,91053.19
2023-01-19T15:13:23.513Z,91059.38
2023-01-19T15:16:09.453Z,91047.13
2023-01-19T15:18:56.302Z,91044.72
2023-01-19T15:21:42.419Z,91041.00
2023-01-19T15:24:28.280Z,91038.50
2023-01-19T15:27:14.235Z,91040.59
2023-01-19T15:30:00.177Z,91040.25
2023-01-19T15:32:46.130Z,91038.19
2023-01-19T15:35:32.127Z,91039.34
2023-01-19T15:38:18.107Z,91036.09
2023-01-19T15:41:04.260Z,91039.66
2023-01-19T15:43:52.289Z,91034.97
2023-01-19T15:46:38.230Z,91033.03
2023-01-19T15:49:24.111Z,91033.25
2023-01-19T15:52:10.039Z,91029.09
2023-01-19T15:54:55.859Z,91028.19
2023-01-19T15:57:41.758Z,91024.19
2023-01-19T16:00:27.793Z,91027.44
2023-01-19T16:03:13.741Z,91028.88
2023-01-19T16:06:01.685Z,91021.66
2023-01-19T16:08:47.568Z,91021.78
2023-01-19T16:11:33.503Z,91013.28
2023-01-19T16:14:19.473Z,91018.66
2023-01-19T16:17:05.302Z,91023.06
2023-01-19T16:19:51.338Z,91013.41
2023-01-19T16:22:37.241Z,91019.88
2023-01-19T16:25:23.099Z,91023.44
2023-01-19T16:28:08.994Z,91009.00
2023-01-19T16:30:54.812Z,91008.69
2023-01-19T16:33:40.667Z,91004.72
2023-01-19T16:36:26.535Z,91011.44
2023-01-19T16:39:12.371Z,91008.88
2023-01-19T16:41:58.347Z,91008.81
2023-01-19T16:44:44.420Z,91004.09
2023-01-19T16:47:30.247Z,91000.97
2023-01-19T16:50:16.097Z,90994.75
2023-01-19T16:53:02.090Z,91003.34
2023-01-19T16:55:47.936Z,91010.13
2023-01-19T16:58:33.863Z,91000.88
2023-01-19T17:01:20.446Z,90999.88
2023-01-19T17:04:06.684Z,91005.44
2023-01-19T17:06:52.741Z,91000.13
2023-01-19T17:09:38.528Z,91006.13
2023-01-19T17:12:24.545Z,91004.22
2023-01-19T17:15:10.424Z,90994.56
2023-01-19T17:17:56.273Z,90999.81
2023-01-19T17:20:42.089Z,91002.63
2023-01-19T17:23:28.012Z,91002.00
2023-01-19T17:26:13.836Z,91002.34
2023-01-19T17:28:59.844Z,91003.13
2023-01-19T17:31:45.985Z,91002.63
2023-01-19T17:34:32.296Z,91000.63
2023-01-19T17:37:18.255Z,90997.78
2023-01-19T17:40:04.109Z,90986.19
2023-01-19T17:42:49.988Z,90988.41
2023-01-19T17:45:35.713Z,90989.41
2023-01-19T17:48:21.501Z,90987.88
2023-01-19T17:51:07.609Z,90991.56
2023-01-19T17:53:53.433Z,90988.25
2023-01-19T17:56:39.313Z,90982.41
2023-01-19T17:59:25.240Z,90980.63
2023-01-19T18:02:11.385Z,90977.84
2023-01-19T18:04:57.349Z,90974.50
2023-01-19T18:07:43.212Z,90970.31
2023-01-19T18:10:36.965Z,90980.09
2023-01-19T18:13:23.240Z,90977.88
2023-01-19T18:16:09.115Z,90970.38
2023-01-19T18:18:55.088Z,90963.72
2023-01-19T18:21:41.141Z,90971.53
2023-01-19T18:24:26.980Z,90963.13
2023-01-19T18:27:12.894Z,90953.44
2023-01-19T18:29:58.803Z,90950.66
2023-01-19T18:32:44.616Z,90955.88
2023-01-19T18:35:30.632Z,90950.16
2023-01-19T18:38:16.604Z,90947.38
2023-01-19T18:41:02.334Z,90944.16
2023-01-19T18:43:48.192Z,90947.47
2023-01-19T18:46:33.983Z,90948.56
2023-01-19T18:49:19.941Z,90948.75
2023-01-19T18:52:05.780Z,90941.31
2023-01-19T18:54:51.741Z,90941.09
2023-01-19T18:57:37.657Z,90943.84
2023-01-19T19:00:24.178Z,90946.03
2023-01-19T19:03:10.057Z,90936.44
2023-01-19T19:05:55.853Z,90935.53
2023-01-19T19:08:41.752Z,90937.06
2023-01-19T19:11:27.635Z,90936.19
2023-01-19T19:14:13.644Z,90936.28
2023-01-19T19:16:59.415Z,90933.25
2023-01-19T19:19:45.264Z,90941.03
2023-01-19T19:22:31.325Z,90937.56
2023-01-19T19:25:17.252Z,90932.22
2023-01-19T19:28:03.140Z,90934.69
2023-01-19T19:30:49.077Z,90936.91
2023-01-19T19:33:35.144Z,90924.22
2023-01-19T19:36:21.016Z,90934.19
2023-01-19T19:39:06.818Z,90933.06
2023-01-19T19:41:52.801Z,90934.50
2023-01-19T19:44:38.689Z,90933.34
2023-01-19T19:47:24.669Z,90925.59
2023-01-19T19:50:10.766Z,90931.00
2023-01-19T19:52:56.957Z,90929.81
2023-01-19T19:55:42.934Z,90935.66
2023-01-19T19:58:29.102Z,90930.88
2023-01-19T20:01:14.945Z,90925.59
2023-01-19T20:04:01.217Z,90930.84
2023-01-19T20:06:47.113Z,90930.84
2023-01-19T20:09:33.033Z,90930.56
2023-01-19T20:12:19.012Z,90933.22
2023-01-19T20:15:04.831Z,90932.84
2023-01-19T20:17:50.750Z,90938.72
2023-01-19T20:20:36.694Z,90938.38
2023-01-19T20:23:22.613Z,90943.78
2023-01-19T20:26:08.476Z,90944.19
2023-01-19T20:28:54.391Z,90942.38
2023-01-19T20:31:40.491Z,90941.81
2023-01-19T20:34:26.482Z,90945.13
2023-01-19T20:37:12.278Z,90947.63
2023-01-19T20:39:58.230Z,90944.53
2023-01-19T20:42:44.048Z,90948.16
2023-01-19T20:45:29.998Z,90943.50
2023-01-19T20:48:16.154Z,90951.28
2023-01-19T20:51:01.930Z,90949.66
2023-01-19T20:53:47.816Z,90951.81
2023-01-19T20:56:33.729Z,90945.25
2023-01-19T20:59:19.707Z,90949.13
2023-01-19T21:02:05.747Z,90952.22
2023-01-19T21:04:51.766Z,90958.91
2023-01-19T21:07:37.494Z,90958.19
2023-01-19T21:10:24.077Z,90960.09
2023-01-19T21:13:09.917Z,90966.91
2023-01-19T21:15:55.783Z,90968.91
2023-01-19T21:18:41.702Z,90976.09
2023-01-19T21:21:31.799Z,90962.41
2023-01-19T21:24:18.086Z,90964.75
2023-01-19T21:27:04.036Z,90971.72
2023-01-19T21:29:49.807Z,90971.59
2023-01-19T21:32:35.764Z,90979.00
2023-01-19T21:35:21.700Z,90978.97
2023-01-19T21:38:07.606Z,90985.88
2023-01-19T21:40:53.447Z,90990.03
2023-01-19T21:43:39.441Z,90990.28
2023-01-19T21:46:25.214Z,90995.53
2023-01-19T21:49:10.928Z,90992.88
2023-01-19T21:51:56.750Z,90993.25
2023-01-19T21:54:42.713Z,90994.06
2023-01-19T21:57:28.576Z,91007.75
2023-01-19T22:00:14.406Z,90997.72
2023-01-19T22:03:04.241Z,91010.81
2023-01-19T22:05:50.834Z,91006.44
2023-01-19T22:08:36.745Z,91009.31
2023-01-19T22:11:22.733Z,91010.34
2023-01-19T22:14:08.725Z,91015.72
2023-01-19T22:16:54.580Z,91022.94
2023-01-19T22:19:40.562Z,91030.88
2023-01-19T22:22:26.506Z,91035.41
2023-01-19T22:25:12.751Z,91031.38
2023-01-19T22:27:59.028Z,91041.28
2023-01-19T22:30:45.027Z,91038.97
2023-01-19T22:33:31.072Z,91037.53
2023-01-19T22:36:17.059Z,91035.72
2023-01-19T22:39:02.997Z,91036.56
2023-01-19T22:41:48.942Z,91040.84
2023-01-19T22:44:34.848Z,91040.63
2023-01-19T22:47:20.815Z,91039.41
2023-01-19T22:50:06.753Z,91040.38
2023-01-19T22:52:52.587Z,91037.19
2023-01-19T22:55:38.394Z,91038.78
2023-01-19T22:58:24.331Z,91041.19
2023-01-19T23:01:10.266Z,91041.19
2023-01-19T23:03:56.155Z,91044.72
2023-01-19T23:06:42.143Z,91040.16
2023-01-19T23:09:28.036Z,91043.41
2023-01-19T23:12:13.976Z,91042.13
2023-01-19T23:14:59.873Z,91039.00
2023-01-19T23:17:45.893Z,91043.63
2023-01-19T23:20:32.008Z,91043.22
2023-01-19T23:23:17.830Z,91050.97
2023-01-19T23:26:03.902Z,91042.16
2023-01-19T23:28:49.759Z,91050.88
2023-01-19T23:31:35.740Z,91065.41
2023-01-19T23:34:21.741Z,91057.38
2023-01-19T23:37:07.687Z,91063.44
2023-01-19T23:39:53.554Z,91051.78
2023-01-19T23:42:39.540Z,91055.16
2023-01-19T23:45:25.313Z,91047.50
2023-01-19T23:48:11.166Z,91054.94
2023-01-19T23:50:56.984Z,91053.34
2023-01-19T23:53:42.952Z,91050.59
2023-01-19T23:56:28.947Z,91061.16
2023-01-19T23:59:14.800Z,91061.94
